sensor_id;sensor_type;location;lat;lon;timestamp;P1;durP1;ratioP1;P2;durP2;ratioP2
32146;SDS011;32190;49.112;8.598;2023-03-13T00:05:41;4.80;;;0.95;;
32146;SDS011;32190;49.112;8.598;2023-03-13T00:11:32;2.15;;;0.60;;
32146;SDS011;32190;49.112;8.598;2023-03-13T00:17:22;4.03;;;0.80;;
32146;SDS011;32190;49.112;8.598;2023-03-13T00:23:13;3.30;;;0.90;;
32146;SDS011;32190;49.112;8.598;2023-03-13T00:29:03;3.80;;;1.05;;
32146;SDS011;32190;49.112;8.598;2023-03-13T00:34:54;3.50;;;1.33;;
32146;SDS011;32190;49.112;8.598;2023-03-13T00:40:45;2.75;;;0.95;;
32146;SDS011;32190;49.112;8.598;2023-03-13T00:46:35;1.58;;;0.60;;
32146;SDS011;32190;49.112;8.598;2023-03-13T00:52:26;2.53;;;1.00;;
32146;SDS011;32190;49.112;8.598;2023-03-13T00:58:33;1.65;;;0.60;;
32146;SDS011;32190;49.112;8.598;2023-03-13T01:26:02;2.22;;;0.80;;
32146;SDS011;32190;49.112;8.598;2023-03-13T01:31:54;2.45;;;0.60;;
32146;SDS011;32190;49.112;8.598;2023-03-13T01:37:45;3.05;;;0.68;;
32146;SDS011;32190;49.112;8.598;2023-03-13T01:43:35;1.10;;;0.60;;
32146;SDS011;32190;49.112;8.598;2023-03-13T01:49:27;1.00;;;0.50;;
32146;SDS011;32190;49.112;8.598;2023-03-13T01:55:22;1.02;;;0.45;;
32146;SDS011;32190;49.112;8.598;2023-03-13T02:01:12;1.85;;;0.57;;
32146;SDS011;32190;49.112;8.598;2023-03-13T02:07:05;1.02;;;0.45;;
32146;SDS011;32190;49.112;8.598;2023-03-13T02:13:00;1.17;;;0.75;;
32146;SDS011;32190;49.112;8.598;2023-03-13T02:18:52;2.03;;;0.40;;
32146;SDS011;32190;49.112;8.598;2023-03-13T02:24:51;1.23;;;0.80;;
32146;SDS011;32190;49.112;8.598;2023-03-13T02:30:58;1.95;;;0.50;;
32146;SDS011;32190;49.112;8.598;2023-03-13T02:36:49;2.17;;;0.63;;
32146;SDS011;32190;49.112;8.598;2023-03-13T02:42:41;1.83;;;0.40;;
32146;SDS011;32190;49.112;8.598;2023-03-13T02:48:35;1.17;;;0.50;;
32146;SDS011;32190;49.112;8.598;2023-03-13T02:54:33;0.50;;;0.40;;
32146;SDS011;32190;49.112;8.598;2023-03-13T03:00:27;0.73;;;0.40;;
32146;SDS011;32190;49.112;8.598;2023-03-13T03:06:17;0.93;;;0.50;;
32146;SDS011;32190;49.112;8.598;2023-03-13T03:12:08;0.68;;;0.50;;
32146;SDS011;32190;49.112;8.598;2023-03-13T03:17:59;1.58;;;0.30;;
32146;SDS011;32190;49.112;8.598;2023-03-13T03:23:49;0.80;;;0.68;;
32146;SDS011;32190;49.112;8.598;2023-03-13T03:29:40;1.55;;;0.35;;
32146;SDS011;32190;49.112;8.598;2023-03-13T03:35:31;1.33;;;0.40;;
32146;SDS011;32190;49.112;8.598;2023-03-13T03:41:22;2.22;;;0.40;;
32146;SDS011;32190;49.112;8.598;2023-03-13T03:47:13;0.45;;;0.45;;
32146;SDS011;32190;49.112;8.598;2023-03-13T03:53:04;0.43;;;0.30;;
32146;SDS011;32190;49.112;8.598;2023-03-13T03:58:54;0.90;;;0.55;;
32146;SDS011;32190;49.112;8.598;2023-03-13T04:04:45;0.63;;;0.63;;
32146;SDS011;32190;49.112;8.598;2023-03-13T04:10:35;0.70;;;0.38;;
32146;SDS011;32190;49.112;8.598;2023-03-13T04:16:26;0.77;;;0.28;;
32146;SDS011;32190;49.112;8.598;2023-03-13T04:22:16;0.95;;;0.40;;
32146;SDS011;32190;49.112;8.598;2023-03-13T04:28:07;0.20;;;0.20;;
32146;SDS011;32190;49.112;8.598;2023-03-13T04:33:58;0.40;;;0.40;;
32146;SDS011;32190;49.112;8.598;2023-03-13T04:39:48;0.40;;;0.30;;
32146;SDS011;32190;49.112;8.598;2023-03-13T04:45:39;0.70;;;0.50;;
32146;SDS011;32190;49.112;8.598;2023-03-13T04:51:29;1.20;;;0.45;;
32146;SDS011;32190;49.112;8.598;2023-03-13T04:57:20;0.52;;;0.30;;
32146;SDS011;32190;49.112;8.598;2023-03-13T05:03:10;1.27;;;0.40;;
32146;SDS011;32190;49.112;8.598;2023-03-13T05:09:01;0.40;;;0.40;;
32146;SDS011;32190;49.112;8.598;2023-03-13T05:41:42;0.93;;;0.20;;
32146;SDS011;32190;49.112;8.598;2023-03-13T05:47:33;0.20;;;0.20;;
32146;SDS011;32190;49.112;8.598;2023-03-13T05:53:24;0.20;;;0.20;;
32146;SDS011;32190;49.112;8.598;2023-03-13T05:59:14;0.22;;;0.22;;
32146;SDS011;32190;49.112;8.598;2023-03-13T06:05:05;0.20;;;0.20;;
32146;SDS011;32190;49.112;8.598;2023-03-13T06:10:59;0.20;;;0.20;;
32146;SDS011;32190;49.112;8.598;2023-03-13T06:16:52;0.43;;;0.30;;
32146;SDS011;32190;49.112;8.598;2023-03-13T06:22:43;0.28;;;0.28;;
32146;SDS011;32190;49.112;8.598;2023-03-13T06:28:34;0.15;;;0.15;;
32146;SDS011;32190;49.112;8.598;2023-03-13T06:34:25;0.80;;;0.57;;
32146;SDS011;32190;49.112;8.598;2023-03-13T06:40:15;0.68;;;0.20;;
32146;SDS011;32190;49.112;8.598;2023-03-13T06:46:06;0.20;;;0.20;;
32146;SDS011;32190;49.112;8.598;2023-03-13T06:51:57;0.20;;;0.20;;
32146;SDS011;32190;49.112;8.598;2023-03-13T06:57:48;0.20;;;0.20;;
32146;SDS011;32190;49.112;8.598;2023-03-13T07:03:40;0.47;;;0.25;;
32146;SDS011;32190;49.112;8.598;2023-03-13T07:09:31;0.45;;;0.20;;
32146;SDS011;32190;49.112;8.598;2023-03-13T07:15:22;0.20;;;0.20;;
32146;SDS011;32190;49.112;8.598;2023-03-13T07:21:18;0.20;;;0.20;;
32146;SDS011;32190;49.112;8.598;2023-03-13T07:27:21;0.20;;;0.20;;
32146;SDS011;32190;49.112;8.598;2023-03-13T07:33:14;0.20;;;0.20;;
32146;SDS011;32190;49.112;8.598;2023-03-13T07:39:06;0.35;;;0.30;;
32146;SDS011;32190;49.112;8.598;2023-03-13T07:44:56;0.28;;;0.28;;
32146;SDS011;32190;49.112;8.598;2023-03-13T07:50:47;0.85;;;0.20;;
32146;SDS011;32190;49.112;8.598;2023-03-13T07:56:40;0.20;;;0.20;;
32146;SDS011;32190;49.112;8.598;2023-03-13T08:02:32;0.30;;;0.30;;
32146;SDS011;32190;49.112;8.598;2023-03-13T08:08:22;0.30;;;0.30;;
32146;SDS011;32190;49.112;8.598;2023-03-13T08:14:13;0.20;;;0.20;;
32146;SDS011;32190;49.112;8.598;2023-03-13T08:20:04;0.20;;;0.20;;
32146;SDS011;32190;49.112;8.598;2023-03-13T08:26:00;0.20;;;0.20;;
32146;SDS011;32190;49.112;8.598;2023-03-13T08:31:52;0.20;;;0.20;;
32146;SDS011;32190;49.112;8.598;2023-03-13T08:37:44;0.20;;;0.20;;
32146;SDS011;32190;49.112;8.598;2023-03-13T08:43:35;0.20;;;0.20;;
32146;SDS011;32190;49.112;8.598;2023-03-13T08:49:25;0.20;;;0.20;;
32146;SDS011;32190;49.112;8.598;2023-03-13T08:55:16;0.85;;;0.30;;
32146;SDS011;32190;49.112;8.598;2023-03-13T09:01:14;0.20;;;0.20;;
32146;SDS011;32190;49.112;8.598;2023-03-13T09:07:07;0.30;;;0.30;;
32146;SDS011;32190;49.112;8.598;2023-03-13T09:12:58;0.30;;;0.30;;
32146;SDS011;32190;49.112;8.598;2023-03-13T09:18:49;0.35;;;0.35;;
32146;SDS011;32190;49.112;8.598;2023-03-13T09:24:41;0.40;;;0.40;;
32146;SDS011;32190;49.112;8.598;2023-03-13T09:30:32;0.30;;;0.30;;
32146;SDS011;32190;49.112;8.598;2023-03-13T09:36:22;0.75;;;0.32;;
32146;SDS011;32190;49.112;8.598;2023-03-13T09:42:17;0.30;;;0.30;;
32146;SDS011;32190;49.112;8.598;2023-03-13T09:48:21;1.10;;;0.50;;
32146;SDS011;32190;49.112;8.598;2023-03-13T10:00:18;0.60;;;0.40;;
32146;SDS011;32190;49.112;8.598;2023-03-13T10:06:18;1.05;;;0.43;;
32146;SDS011;32190;49.112;8.598;2023-03-13T10:18:55;0.32;;;0.30;;
32146;SDS011;32190;49.112;8.598;2023-03-13T10:24:54;0.70;;;0.40;;
32146;SDS011;32190;49.112;8.598;2023-03-13T10:31:12;0.52;;;0.47;;
32146;SDS011;32190;49.112;8.598;2023-03-13T10:37:06;1.00;;;0.52;;
32146;SDS011;32190;49.112;8.598;2023-03-13T10:43:21;0.47;;;0.38;;
32146;SDS011;32190;49.112;8.598;2023-03-13T10:49:17;0.50;;;0.50;;
32146;SDS011;32190;49.112;8.598;2023-03-13T10:55:13;0.40;;;0.32;;
32146;SDS011;32190;49.112;8.598;2023-03-13T11:07:13;0.43;;;0.30;;
32146;SDS011;32190;49.112;8.598;2023-03-13T11:13:09;1.38;;;0.30;;
32146;SDS011;32190;49.112;8.598;2023-03-13T11:37:39;0.75;;;0.50;;
32146;SDS011;32190;49.112;8.598;2023-03-13T11:43:47;1.70;;;0.50;;
32146;SDS011;32190;49.112;8.598;2023-03-13T12:14:26;0.47;;;0.40;;
32146;SDS011;32190;49.112;8.598;2023-03-13T12:20:43;0.40;;;0.40;;
32146;SDS011;32190;49.112;8.598;2023-03-13T12:26:50;0.40;;;0.40;;
32146;SDS011;32190;49.112;8.598;2023-03-13T12:32:49;0.43;;;0.40;;
32146;SDS011;32190;49.112;8.598;2023-03-13T12:44:54;0.47;;;0.35;;
32146;SDS011;32190;49.112;8.598;2023-03-13T13:03:01;0.40;;;0.40;;
32146;SDS011;32190;49.112;8.598;2023-03-13T13:09:22;0.60;;;0.60;;
32146;SDS011;32190;49.112;8.598;2023-03-13T13:15:21;0.40;;;0.40;;
32146;SDS011;32190;49.112;8.598;2023-03-13T13:27:53;0.40;;;0.40;;
32146;SDS011;32190;49.112;8.598;2023-03-13T13:39:29;0.52;;;0.38;;
32146;SDS011;32190;49.112;8.598;2023-03-13T13:45:54;0.50;;;0.50;;
32146;SDS011;32190;49.112;8.598;2023-03-13T13:58:00;0.77;;;0.40;;
32146;SDS011;32190;49.112;8.598;2023-03-13T14:03:53;0.40;;;0.40;;
32146;SDS011;32190;49.112;8.598;2023-03-13T14:10:03;0.70;;;0.35;;
32146;SDS011;32190;49.112;8.598;2023-03-13T14:16:19;0.20;;;0.20;;
32146;SDS011;32190;49.112;8.598;2023-03-13T14:22:14;0.52;;;0.50;;
32146;SDS011;32190;49.112;8.598;2023-03-13T14:28:24;0.40;;;0.40;;
32146;SDS011;32190;49.112;8.598;2023-03-13T14:34:17;0.40;;;0.40;;
32146;SDS011;32190;49.112;8.598;2023-03-13T14:40:08;1.33;;;0.40;;
32146;SDS011;32190;49.112;8.598;2023-03-13T14:46:00;0.45;;;0.45;;
32146;SDS011;32190;49.112;8.598;2023-03-13T14:52:23;0.40;;;0.40;;
32146;SDS011;32190;49.112;8.598;2023-03-13T15:04:09;0.45;;;0.45;;
32146;SDS011;32190;49.112;8.598;2023-03-13T15:09:59;0.45;;;0.30;;
32146;SDS011;32190;49.112;8.598;2023-03-13T15:15:50;0.38;;;0.38;;
32146;SDS011;32190;49.112;8.598;2023-03-13T15:45:55;0.52;;;0.40;;
32146;SDS011;32190;49.112;8.598;2023-03-13T15:51:48;0.50;;;0.30;;
32146;SDS011;32190;49.112;8.598;2023-03-13T15:57:41;0.25;;;0.25;;
32146;SDS011;32190;49.112;8.598;2023-03-13T16:03:41;0.25;;;0.25;;
32146;SDS011;32190;49.112;8.598;2023-03-13T16:09:31;0.30;;;0.30;;
32146;SDS011;32190;49.112;8.598;2023-03-13T16:15:22;0.40;;;0.40;;
32146;SDS011;32190;49.112;8.598;2023-03-13T16:21:14;0.20;;;0.20;;
32146;SDS011;32190;49.112;8.598;2023-03-13T16:27:15;0.77;;;0.22;;
32146;SDS011;32190;49.112;8.598;2023-03-13T16:33:07;0.22;;;0.22;;
32146;SDS011;32190;49.112;8.598;2023-03-13T16:39:03;0.47;;;0.20;;
32146;SDS011;32190;49.112;8.598;2023-03-13T16:44:57;0.20;;;0.20;;
32146;SDS011;32190;49.112;8.598;2023-03-13T16:50:48;0.30;;;0.30;;
32146;SDS011;32190;49.112;8.598;2023-03-13T16:56:39;0.25;;;0.20;;
32146;SDS011;32190;49.112;8.598;2023-03-13T17:02:32;0.45;;;0.25;;
32146;SDS011;32190;49.112;8.598;2023-03-13T17:08:26;0.73;;;0.50;;
32146;SDS011;32190;49.112;8.598;2023-03-13T17:14:16;0.63;;;0.50;;
32146;SDS011;32190;49.112;8.598;2023-03-13T17:20:14;0.98;;;0.30;;
32146;SDS011;32190;49.112;8.598;2023-03-13T17:26:16;0.90;;;0.20;;
32146;SDS011;32190;49.112;8.598;2023-03-13T17:32:12;0.80;;;0.30;;
32146;SDS011;32190;49.112;8.598;2023-03-13T17:38:03;1.30;;;0.60;;
32146;SDS011;32190;49.112;8.598;2023-03-13T17:43:54;0.32;;;0.30;;
32146;SDS011;32190;49.112;8.598;2023-03-13T17:49:45;0.60;;;0.38;;
32146;SDS011;32190;49.112;8.598;2023-03-13T17:55:35;0.20;;;0.20;;
32146;SDS011;32190;49.112;8.598;2023-03-13T18:01:29;0.30;;;0.30;;
32146;SDS011;32190;49.112;8.598;2023-03-13T18:07:22;0.20;;;0.20;;
32146;SDS011;32190;49.112;8.598;2023-03-13T18:13:15;1.02;;;0.43;;
32146;SDS011;32190;49.112;8.598;2023-03-13T18:19:07;0.22;;;0.22;;
32146;SDS011;32190;49.112;8.598;2023-03-13T18:25:04;1.05;;;0.35;;
32146;SDS011;32190;49.112;8.598;2023-03-13T18:30:55;0.35;;;0.35;;
32146;SDS011;32190;49.112;8.598;2023-03-13T18:36:45;0.20;;;0.20;;
32146;SDS011;32190;49.112;8.598;2023-03-13T18:42:36;0.20;;;0.20;;
32146;SDS011;32190;49.112;8.598;2023-03-13T18:48:27;0.30;;;0.30;;
32146;SDS011;32190;49.112;8.598;2023-03-13T18:54:17;2.65;;;0.45;;
32146;SDS011;32190;49.112;8.598;2023-03-13T19:00:54;0.32;;;0.30;;
32146;SDS011;32190;49.112;8.598;2023-03-13T19:06:33;0.65;;;0.55;;
32146;SDS011;32190;49.112;8.598;2023-03-13T19:12:24;0.30;;;0.30;;
32146;SDS011;32190;49.112;8.598;2023-03-13T19:18:15;0.45;;;0.45;;
32146;SDS011;32190;49.112;8.598;2023-03-13T19:30:25;0.28;;;0.28;;
32146;SDS011;32190;49.112;8.598;2023-03-13T19:36:16;0.40;;;0.40;;
32146;SDS011;32190;49.112;8.598;2023-03-13T19:42:09;0.38;;;0.38;;
32146;SDS011;32190;49.112;8.598;2023-03-13T19:48:00;0.30;;;0.30;;
32146;SDS011;32190;49.112;8.598;2023-03-13T19:53:51;0.50;;;0.50;;
32146;SDS011;32190;49.112;8.598;2023-03-13T19:59:42;0.30;;;0.30;;
32146;SDS011;32190;49.112;8.598;2023-03-13T20:05:32;0.30;;;0.30;;
32146;SDS011;32190;49.112;8.598;2023-03-13T20:11:28;0.30;;;0.22;;
32146;SDS011;32190;49.112;8.598;2023-03-13T20:17:19;0.20;;;0.20;;
32146;SDS011;32190;49.112;8.598;2023-03-13T20:23:33;0.15;;;0.15;;
32146;SDS011;32190;49.112;8.598;2023-03-13T20:29:33;0.82;;;0.20;;
32146;SDS011;32190;49.112;8.598;2023-03-13T20:35:23;0.32;;;0.32;;
32146;SDS011;32190;49.112;8.598;2023-03-13T20:41:14;0.10;;;0.10;;
32146;SDS011;32190;49.112;8.598;2023-03-13T20:47:32;0.40;;;0.40;;
32146;SDS011;32190;49.112;8.598;2023-03-13T20:59:38;0.20;;;0.20;;
32146;SDS011;32190;49.112;8.598;2023-03-13T21:05:31;0.35;;;0.30;;
32146;SDS011;32190;49.112;8.598;2023-03-13T21:11:22;0.20;;;0.20;;
32146;SDS011;32190;49.112;8.598;2023-03-13T21:17:12;0.20;;;0.20;;
32146;SDS011;32190;49.112;8.598;2023-03-13T21:23:04;0.30;;;0.30;;
32146;SDS011;32190;49.112;8.598;2023-03-13T21:28:55;0.35;;;0.20;;
32146;SDS011;32190;49.112;8.598;2023-03-13T21:34:46;0.43;;;0.40;;
32146;SDS011;32190;49.112;8.598;2023-03-13T21:47:28;0.55;;;0.30;;
32146;SDS011;32190;49.112;8.598;2023-03-13T21:53:28;0.20;;;0.20;;
32146;SDS011;32190;49.112;8.598;2023-03-13T21:59:19;0.20;;;0.20;;
32146;SDS011;32190;49.112;8.598;2023-03-13T22:05:16;0.30;;;0.30;;
32146;SDS011;32190;49.112;8.598;2023-03-13T22:11:29;0.17;;;0.17;;
32146;SDS011;32190;49.112;8.598;2023-03-13T22:17:29;0.20;;;0.20;;
32146;SDS011;32190;49.112;8.598;2023-03-13T22:23:27;0.45;;;0.45;;
32146;SDS011;32190;49.112;8.598;2023-03-13T22:29:39;0.20;;;0.20;;
32146;SDS011;32190;49.112;8.598;2023-03-13T22:36:20;0.20;;;0.20;;
32146;SDS011;32190;49.112;8.598;2023-03-13T22:42:15;0.20;;;0.20;;
32146;SDS011;32190;49.112;8.598;2023-03-13T22:48:10;0.45;;;0.30;;
32146;SDS011;32190;49.112;8.598;2023-03-13T22:54:08;0.30;;;0.30;;
32146;SDS011;32190;49.112;8.598;2023-03-13T23:00:10;0.20;;;0.20;;
32146;SDS011;32190;49.112;8.598;2023-03-13T23:11:58;0.80;;;0.22;;
32146;SDS011;32190;49.112;8.598;2023-03-13T23:17:49;0.20;;;0.20;;
32146;SDS011;32190;49.112;8.598;2023-03-13T23:23:40;0.28;;;0.28;;
32146;SDS011;32190;49.112;8.598;2023-03-13T23:29:34;0.60;;;0.30;;
32146;SDS011;32190;49.112;8.598;2023-03-13T23:35:25;0.25;;;0.25;;
32146;SDS011;32190;49.112;8.598;2023-03-13T23:41:18;0.17;;;0.17;;
32146;SDS011;32190;49.112;8.598;2023-03-13T23:47:10;0.20;;;0.20;;
32146;SDS011;32190;49.112;8.598;2023-03-13T23:53:03;0.30;;;0.30;;
32146;SDS011;32190;49.112;8.598;2023-03-13T23:58:54;0.20;;;0.20;;
